Time;durP1;ratioP1;P1;durP2;ratioP2;P2;SDS_P1;SDS_P2;PMS_P1;PMS_P2;Temp;Humidity;BMP_temperature;BMP_pressure;BME280_temperature;BME280_humidity;BME280_pressure;Samples;Min_cycle;Max_cycle;Signal;HPM_P1;HPM_P2
2021/08/26 00:00:58;;;;;;;8.03;4.73;;;13.20;99.90;;;14.39;100.00;98135.94;5051189;28;20539;-79
2021/08/26 00:06:16;;;;;;;8.00;5.00;;;13.20;99.90;;;14.28;100.00;98121.59;5046253;28;20469;-79
2021/08/26 00:08:47;;;;;;;8.63;4.80;;;13.20;99.90;;;14.28;100.00;98111.06;5047564;28;20465;-79
2021/08/26 00:11:19;;;;;;;9.67;4.87;;;13.20;99.90;;;14.30;100.00;98109.00;5042918;28;20470;-79
2021/08/26 00:13:50;;;;;;;10.73;4.80;;;13.20;99.90;;;14.13;100.00;98099.97;5044601;28;20524;-79
2021/08/26 00:16:19;;;;;;;7.57;4.33;;;13.00;99.90;;;14.07;100.00;98104.25;5046702;28;20468;-79
2021/08/26 00:18:48;;;;;;;8.90;4.73;;;12.80;99.90;;;13.89;100.00;98101.47;5040973;28;20451;-78
2021/08/26 00:21:19;;;;;;;8.87;4.60;;;12.60;99.90;;;13.82;100.00;98097.25;5046983;28;20456;-79
2021/08/26 00:23:47;;;;;;;11.10;4.90;;;12.50;99.90;;;13.74;100.00;98102.75;5051871;28;20873;-78
2021/08/26 00:26:16;;;;;;;12.57;5.17;;;12.40;99.90;;;13.88;100.00;98104.31;5056984;28;20476;-78
2021/08/26 00:28:44;;;;;;;8.03;5.10;;;12.70;99.90;;;13.78;100.00;98102.09;5045257;28;20833;-79
2021/08/26 00:31:13;;;;;;;14.47;4.67;;;12.60;99.90;;;13.80;100.00;98101.91;5050682;28;20519;-79
2021/08/26 00:33:41;;;;;;;7.70;4.27;;;12.60;99.90;;;13.89;100.00;98100.66;5048851;28;20497;-79
2021/08/26 00:36:10;;;;;;;10.90;5.60;;;12.70;99.90;;;13.87;100.00;98097.44;5044007;28;20527;-78
2021/08/26 00:38:39;;;;;;;9.20;4.70;;;12.70;99.90;;;13.85;100.00;98097.63;5049972;28;20523;-78
2021/08/26 00:41:08;;;;;;;19.23;4.90;;;12.70;99.90;;;13.94;100.00;98091.16;5048833;28;20784;-79
2021/08/26 00:43:36;;;;;;;11.93;5.40;;;12.80;99.90;;;13.91;100.00;98088.13;5054128;28;20469;-78
2021/08/26 00:46:05;;;;;;;8.60;4.70;;;12.80;99.90;;;13.98;100.00;98088.94;5041757;28;20495;-79
2021/08/26 00:48:34;;;;;;;11.07;4.80;;;12.90;99.90;;;14.00;100.00;98097.41;5046592;28;20834;-78
2021/08/26 00:51:02;;;;;;;8.87;4.90;;;13.10;99.90;;;13.97;100.00;98098.63;5049683;28;20481;-78
2021/08/26 00:53:31;;;;;;;8.63;4.73;;;13.10;99.90;;;13.98;100.00;98096.81;5047471;28;21088;-79
2021/08/26 00:56:00;;;;;;;9.00;4.27;;;13.00;99.90;;;13.92;100.00;98089.72;5048511;28;20810;-79
2021/08/26 00:58:31;;;;;;;10.97;5.97;;;12.70;99.90;;;14.01;100.00;98085.88;5046334;28;20575;-79
2021/08/26 01:01:04;;;;;;;12.27;5.03;;;12.90;99.90;;;14.03;100.00;98081.19;5048570;28;21040;-79
2021/08/26 01:03:44;;;;;;;9.97;5.10;;;13.10;99.90;;;14.04;100.00;98072.31;5046412;28;20488;-79
2021/08/26 01:06:21;;;;;;;7.63;5.03;;;13.10;99.90;;;14.04;100.00;98067.06;5048793;28;20489;-79
2021/08/26 01:08:59;;;;;;;8.20;4.83;;;13.20;99.90;;;14.08;100.00;98063.00;5043153;28;21519;-78
2021/08/26 01:11:33;;;;;;;6.77;4.63;;;13.10;99.90;;;14.10;100.00;98056.50;5046444;28;20496;-79
2021/08/26 01:14:04;;;;;;;8.17;5.07;;;13.00;99.90;;;14.02;100.00;98051.47;5035463;28;20497;-79
2021/08/26 01:16:37;;;;;;;9.73;5.30;;;12.90;99.90;;;13.99;100.00;98048.44;5045403;28;21027;-79
2021/08/26 01:19:06;;;;;;;6.67;4.60;;;12.80;99.90;;;14.07;100.00;98061.38;5046798;28;20906;-79
2021/08/26 01:21:34;;;;;;;8.10;4.20;;;13.10;99.90;;;14.10;100.00;98055.69;5050682;28;20977;-79
2021/08/26 01:24:09;;;;;;;7.53;4.20;;;13.20;99.90;;;14.16;100.00;98065.38;5052096;28;20834;-79
2021/08/26 01:26:43;;;;;;;14.80;4.40;;;13.30;99.90;;;14.20;100.00;98065.75;5042912;28;20526;-78
2021/08/26 01:29:15;;;;;;;9.73;4.87;;;13.20;99.90;;;14.09;100.00;98060.13;5044162;28;20511;-79
2021/08/26 01:31:45;;;;;;;6.73;4.30;;;13.10;99.90;;;14.18;100.00;98058.09;5041497;28;20597;-79
2021/08/26 01:34:15;;;;;;;9.37;4.33;;;13.20;99.90;;;14.25;100.00;98058.06;5052300;28;20542;-78
2021/08/26 01:36:45;;;;;;;9.50;4.17;;;13.30;99.90;;;14.17;100.00;98053.84;5051257;28;20441;-79
2021/08/26 01:39:16;;;;;;;9.13;4.87;;;13.20;99.90;;;14.16;100.00;98049.59;5049690;28;20531;-79
2021/08/26 01:41:47;;;;;;;5.90;4.60;;;13.10;99.90;;;14.22;100.00;98054.03;5040414;28;20518;-79
2021/08/26 01:44:18;;;;;;;7.43;3.93;;;13.30;99.90;;;14.24;100.00;98048.53;5046270;28;20480;-79
2021/08/26 01:46:48;;;;;;;7.10;4.87;;;13.30;99.90;;;14.29;100.00;98049.53;5035475;28;20497;-78
2021/08/26 01:49:17;;;;;;;8.83;5.03;;;13.30;99.90;;;14.21;100.00;98052.41;5050214;28;20469;-78
2021/08/26 01:51:45;;;;;;;8.17;5.03;;;13.30;99.90;;;14.24;100.00;98030.13;5043766;28;20469;-79
2021/08/26 01:54:14;;;;;;;11.00;5.47;;;13.40;99.90;;;14.29;100.00;98020.63;5049299;28;20540;-79
2021/08/26 01:56:42;;;;;;;8.33;4.63;;;13.40;99.90;;;14.30;100.00;98014.31;5046352;28;20461;-78
2021/08/26 01:59:12;;;;;;;12.30;5.20;;;13.30;99.90;;;14.31;100.00;98002.78;5050175;28;20905;-79
2021/08/26 02:01:41;;;;;;;10.47;4.83;;;13.40;99.90;;;14.32;100.00;98006.22;5043410;28;20559;-78
2021/08/26 02:04:09;;;;;;;9.53;4.60;;;13.50;99.90;;;14.32;100.00;97996.50;5052694;28;20471;-79
2021/08/26 02:06:38;;;;;;;8.60;4.70;;;13.40;99.90;;;14.32;100.00;97995.69;5040395;28;20467;-79
2021/08/26 02:09:06;;;;;;;8.97;5.37;;;13.40;99.90;;;14.28;100.00;97995.31;5048951;28;20508;-78
2021/08/26 02:11:35;;;;;;;6.90;4.60;;;13.50;99.90;;;14.30;100.00;97987.22;5052059;28;20460;-79
2021/08/26 02:14:04;;;;;;;12.73;5.07;;;13.30;99.90;;;14.26;100.00;97976.31;5040471;28;20529;-79
2021/08/26 02:16:34;;;;;;;7.80;5.40;;;13.30;99.90;;;14.25;100.00;97974.69;5051687;28;20482;-78
2021/08/26 02:19:02;;;;;;;8.17;5.00;;;13.30;99.90;;;14.24;100.00;97967.81;5044359;28;20933;-79
2021/08/26 02:21:31;;;;;;;18.57;5.67;;;13.30;99.90;;;14.31;100.00;97967.78;5039257;28;20546;-79
2021/08/26 02:23:59;;;;;;;8.80;5.80;;;13.30;99.90;;;14.34;100.00;97962.94;5049190;28;20457;-79
2021/08/26 02:26:28;;;;;;;8.80;5.50;;;13.40;99.90;;;14.39;100.00;97964.91;5040767;28;20554;-79
2021/08/26 02:28:57;;;;;;;9.83;5.63;;;13.40;99.90;;;14.38;100.00;97958.84;5048122;28;20489;-79
2021/08/26 02:31:27;;;;;;;10.23;5.70;;;13.50;99.90;;;14.45;100.00;97956.97;5045406;28;20458;-79
2021/08/26 02:33:57;;;;;;;13.20;6.40;;;13.50;99.90;;;14.45;100.00;97953.53;5046735;28;20505;-79
2021/08/26 02:36:26;;;;;;;11.53;7.60;;;13.50;99.90;;;14.47;100.00;97959.41;5047131;28;20469;-79
2021/08/26 02:38:55;;;;;;;14.03;8.40;;;13.50;99.90;;;14.45;100.00;97959.63;5047578;28;21024;-80
2021/08/26 02:41:23;;;;;;;12.90;7.53;;;13.50;99.90;;;14.47;100.00;97960.19;5040680;28;20492;-79
2021/08/26 02:43:52;;;;;;;22.53;8.30;;;13.50;99.90;;;14.51;100.00;97948.22;5045822;28;20464;-79
2021/08/26 02:46:20;;;;;;;13.07;7.60;;;13.70;99.90;;;14.54;100.00;97955.69;5045372;28;20825;-79
2021/08/26 02:48:49;;;;;;;12.47;7.37;;;13.80;99.90;;;14.59;100.00;97953.22;5047000;28;20499;-79
2021/08/26 02:51:18;;;;;;;12.70;7.13;;;13.80;99.90;;;14.64;100.00;97955.22;5044900;28;20485;-79
2021/08/26 02:53:47;;;;;;;14.43;7.83;;;13.70;99.90;;;14.67;100.00;97946.91;5046462;28;20555;-79
2021/08/26 02:56:16;;;;;;;13.23;8.27;;;13.80;99.90;;;14.68;100.00;97952.97;5045491;28;20488;-79
2021/08/26 02:58:44;;;;;;;14.43;7.07;;;13.90;99.90;;;14.72;100.00;97959.41;5044417;28;20461;-79
2021/08/26 03:01:13;;;;;;;17.10;7.27;;;13.80;99.90;;;14.76;100.00;97956.13;5044089;28;20945;-79
2021/08/26 03:03:41;;;;;;;11.13;7.23;;;13.80;99.90;;;14.80;100.00;97957.31;5039062;28;20870;-79
2021/08/26 03:06:10;;;;;;;10.73;7.20;;;13.90;99.90;;;14.79;100.00;97954.88;5049051;28;20469;-79
2021/08/26 03:08:40;;;;;;;14.03;6.20;;;14.00;99.90;;;14.81;100.00;97948.41;5051368;28;20505;-79
2021/08/26 03:11:10;;;;;;;20.60;5.90;;;14.00;99.90;;;14.86;100.00;97939.84;5050564;28;20489;-80
2021/08/26 03:13:39;;;;;;;9.63;6.53;;;13.90;99.90;;;14.89;100.00;97940.22;5050653;28;20589;-79
2021/08/26 03:16:08;;;;;;;10.70;6.30;;;13.90;99.90;;;14.92;100.00;97931.09;5047868;28;20872;-79
2021/08/26 03:18:37;;;;;;;13.30;7.00;;;14.00;99.90;;;14.93;100.00;97935.31;5045721;28;20820;-79
2021/08/26 03:21:06;;;;;;;10.97;6.80;;;14.00;99.90;;;14.96;100.00;97927.00;5053503;28;20461;-80
2021/08/26 03:23:34;;;;;;;13.50;6.10;;;14.10;99.90;;;14.98;100.00;97932.84;5048254;28;20548;-80
2021/08/26 03:26:04;;;;;;;9.40;6.43;;;14.10;99.90;;;15.01;100.00;97932.41;5044936;28;21016;-79
2021/08/26 03:28:32;;;;;;;12.20;6.63;;;14.20;99.90;;;15.03;100.00;97936.44;5052994;28;20445;-80
2021/08/26 03:31:01;;;;;;;7.73;6.00;;;14.20;99.90;;;15.06;100.00;97936.00;5049518;28;20465;-79
2021/08/26 03:33:29;;;;;;;10.73;6.27;;;14.20;99.90;;;15.08;100.00;97933.97;5048889;28;20564;-79
2021/08/26 03:35:58;;;;;;;7.70;5.43;;;14.20;99.90;;;15.10;100.00;97926.63;5050612;28;20460;-79
2021/08/26 03:38:26;;;;;;;12.03;6.77;;;14.30;99.90;;;15.13;100.00;97924.59;5046750;28;20485;-79
2021/08/26 03:40:55;;;;;;;17.77;10.63;;;14.40;99.90;;;15.13;100.00;97923.56;5049988;28;20461;-81
2021/08/26 03:43:26;;;;;;;16.97;10.67;;;14.40;99.90;;;15.16;100.00;97927.59;5047613;28;21001;-79
2021/08/26 03:45:54;;;;;;;13.80;8.33;;;14.40;99.90;;;15.16;100.00;97927.59;5046725;28;21013;-79
2021/08/26 03:48:23;;;;;;;12.47;8.80;;;14.40;99.90;;;15.17;100.00;97926.56;5053263;28;20552;-80
2021/08/26 03:50:51;;;;;;;13.77;8.10;;;14.40;99.90;;;15.17;100.00;97926.56;5047892;28;20887;-79
2021/08/26 03:53:20;;;;;;;10.83;7.00;;;14.50;99.90;;;15.15;100.00;97922.53;5048540;28;20454;-79
2021/08/26 03:55:48;;;;;;;10.70;7.27;;;14.40;99.90;;;15.22;100.00;97923.28;5052715;28;20480;-79
2021/08/26 03:58:17;;;;;;;14.80;7.77;;;14.50;99.90;;;15.25;100.00;97910.47;5052912;28;20942;-79
2021/08/26 04:00:46;;;;;;;12.63;8.07;;;14.50;99.90;;;15.26;100.00;97909.47;5048451;28;20567;-79
2021/08/26 04:03:15;;;;;;;12.27;7.60;;;14.40;99.90;;;15.28;100.00;97901.31;5050033;28;20449;-79
2021/08/26 04:05:44;;;;;;;12.27;6.80;;;14.40;99.90;;;15.31;100.00;97906.13;5053498;28;20643;-79
2021/08/26 04:08:12;;;;;;;31.80;18.80;;;14.40;99.90;;;15.32;100.00;97898.03;5050303;28;20469;-81
2021/08/26 04:10:41;;;;;;;11.60;7.50;;;14.40;99.90;;;15.31;100.00;97898.25;5049212;28;21060;-79
2021/08/26 04:13:09;;;;;;;13.63;7.27;;;14.40;99.90;;;15.34;100.00;97898.59;5050046;28;20473;-80
2021/08/26 04:15:38;;;;;;;11.63;6.30;;;14.40;99.90;;;15.39;100.00;97904.03;5053731;28;20977;-80
2021/08/26 04:18:08;;;;;;;8.70;5.73;;;14.50;99.90;;;15.40;100.00;97903.00;5056442;28;20933;-80
2021/08/26 04:20:37;;;;;;;7.90;5.30;;;14.60;99.90;;;15.44;100.00;97904.19;5052620;28;20481;-79
2021/08/26 04:23:06;;;;;;;11.33;5.80;;;14.60;99.90;;;15.46;100.00;97896.84;5056856;28;20864;-80
2021/08/26 04:25:35;;;;;;;35.13;19.07;;;14.60;99.90;;;15.51;100.00;97907.56;5055457;28;20881;-80
2021/08/26 04:28:05;;;;;;;11.33;6.80;;;14.60;99.90;;;15.53;100.00;97908.16;5053203;28;20480;-79
2021/08/26 04:30:33;;;;;;;7.27;5.03;;;14.60;99.90;;;15.55;100.00;97898.16;5051072;28;20502;-79
2021/08/26 04:33:04;;;;;;;7.30;4.97;;;14.60;99.90;;;15.56;100.00;97899.78;5051491;28;20453;-79
2021/08/26 04:35:38;;;;;;;8.20;5.30;;;14.60;99.90;;;15.58;100.00;97897.72;5050490;28;20581;-81
2021/08/26 04:38:06;;;;;;;10.30;6.13;;;14.70;99.90;;;15.56;100.00;97899.78;5053229;28;20499;-80
2021/08/26 04:40:36;;;;;;;6.10;4.50;;;14.60;99.90;;;15.59;100.00;97898.53;5057893;28;20507;-79
2021/08/26 04:43:05;;;;;;;6.23;4.40;;;14.70;99.90;;;15.62;100.00;97897.31;5057704;28;20819;-80
2021/08/26 04:45:34;;;;;;;7.40;5.17;;;14.70;99.90;;;15.53;100.00;97902.88;5046302;28;20446;-79
2021/08/26 04:48:02;;;;;;;8.30;5.30;;;14.70;99.90;;;15.58;100.00;97884.53;5045542;28;20452;-80
2021/08/26 04:50:30;;;;;;;7.13;4.87;;;14.70;99.90;;;15.60;100.00;97885.16;5046184;28;20895;-80
2021/08/26 04:53:00;;;;;;;4.90;4.30;;;14.70;99.90;;;15.58;100.00;97887.19;5052109;28;20509;-80
2021/08/26 04:55:29;;;;;;;7.50;5.20;;;14.60;99.90;;;15.59;100.00;97888.00;5054583;28;20570;-80
2021/08/26 04:57:57;;;;;;;5.33;4.57;;;14.80;99.90;;;15.60;100.00;97885.16;5056434;28;20503;-81
2021/08/26 05:00:26;;;;;;;5.90;4.27;;;14.70;99.90;;;15.63;100.00;97880.44;5054364;28;20503;-79
2021/08/26 05:02:55;;;;;;;6.30;4.50;;;14.90;99.90;;;15.65;100.00;97881.03;5057684;28;20457;-80
2021/08/26 05:05:23;;;;;;;7.43;4.43;;;14.90;99.90;;;15.60;100.00;97879.88;5062313;28;20503;-80
2021/08/26 05:07:52;;;;;;;6.37;4.50;;;14.80;99.90;;;15.59;100.00;97886.16;5055312;28;20445;-80
2021/08/26 05:10:22;;;;;;;5.60;3.83;;;14.70;99.90;;;15.62;100.00;97884.13;5061271;28;20472;-80
2021/08/26 05:12:50;;;;;;;5.63;4.20;;;14.70;99.90;;;15.60;100.00;97887.78;5051579;28;20477;-80
2021/08/26 05:15:19;;;;;;;7.27;4.17;;;14.70;99.90;;;15.57;100.00;97879.50;5058338;28;21057;-80
2021/08/26 05:17:47;;;;;;;5.70;4.17;;;14.60;99.90;;;15.57;100.00;97888.22;5056301;28;20590;-82
2021/08/26 05:20:16;;;;;;;5.83;4.37;;;14.70;99.90;;;15.54;100.00;97886.03;5059787;28;20444;-80
2021/08/26 05:22:45;;;;;;;7.27;5.00;;;14.60;99.90;;;15.54;100.00;97890.50;5056603;28;20465;-80
2021/08/26 05:25:13;;;;;;;6.20;4.00;;;14.60;99.90;;;15.56;100.00;97888.44;5058258;28;20529;-80
2021/08/26 05:27:43;;;;;;;6.60;4.60;;;14.70;99.90;;;15.58;100.00;97886.41;5051536;28;20453;-80
2021/08/26 05:30:12;;;;;;;10.47;3.90;;;14.70;99.90;;;15.63;100.00;97891.00;5059836;28;20514;-80
2021/08/26 05:32:40;;;;;;;7.87;4.47;;;14.70;99.90;;;15.65;100.00;97894.22;5055696;28;20473;-80
2021/08/26 05:35:10;;;;;;;5.30;3.40;;;14.80;99.90;;;15.67;100.00;97900.88;5056343;28;20523;-80
2021/08/26 05:37:39;;;;;;;5.63;3.63;;;14.80;99.90;;;15.67;100.00;97886.88;5055183;28;20510;-80
2021/08/26 05:40:09;;;;;;;4.40;3.40;;;14.80;99.90;;;15.67;100.00;97887.69;5054396;28;20518;-80
2021/08/26 05:42:38;;;;;;;6.70;3.60;;;14.70;99.90;;;15.64;100.00;97882.88;5052831;28;20449;-80
2021/08/26 05:45:09;;;;;;;8.20;3.53;;;14.80;99.90;;;15.68;100.00;97883.22;5056766;28;20518;-81
2021/08/26 05:47:37;;;;;;;6.67;3.93;;;14.90;99.90;;;15.71;100.00;97888.06;5057164;28;20453;-80
2021/08/26 05:50:08;;;;;;;7.10;3.10;;;14.90;99.90;;;15.71;100.00;97885.41;5055398;28;20457;-80
2021/08/26 05:52:36;;;;;;;5.67;4.10;;;14.80;99.90;;;15.73;100.00;97886.78;5057426;28;20456;-80
2021/08/26 05:55:06;;;;;;;5.10;2.80;;;14.90;99.90;;;15.76;100.00;97885.56;5054450;28;20503;-80
2021/08/26 05:57:34;;;;;;;8.77;2.67;;;14.90;99.90;;;15.77;100.00;97889.78;5054224;28;20444;-80
2021/08/26 06:00:04;;;;;;;4.40;3.00;;;14.80;99.90;;;15.79;100.00;97893.81;5055764;28;20449;-80
2021/08/26 06:02:34;;;;;;;5.57;3.00;;;14.90;99.90;;;15.80;100.00;97894.59;5056597;28;20463;-80
2021/08/26 06:05:04;;;;;;;4.50;3.30;;;14.90;99.90;;;15.81;100.00;97891.75;5056500;28;20540;-80
2021/08/26 06:07:32;;;;;;;3.00;2.47;;;14.90;99.90;;;15.82;100.00;97893.38;5061475;28;20441;-80
2021/08/26 06:10:01;;;;;;;4.37;2.83;;;15.00;99.90;;;15.84;100.00;97901.06;5056876;28;20472;-80
2021/08/26 06:12:29;;;;;;;6.80;2.50;;;15.00;99.90;;;15.84;100.00;97893.13;5056966;28;20976;-80
2021/08/26 06:14:58;;;;;;;3.87;2.80;;;15.10;99.90;;;15.87;100.00;97895.31;5052331;28;20583;-80
2021/08/26 06:17:26;;;;;;;4.37;2.80;;;15.10;99.90;;;15.89;100.00;97894.09;5053866;28;20465;-80
2021/08/26 06:19:56;;;;;;;6.70;3.10;;;15.10;99.90;;;15.88;100.00;97896.94;5056013;28;20986;-80
2021/08/26 06:22:24;;;;;;;6.13;3.00;;;15.10;99.90;;;15.90;100.00;97890.41;5059074;28;20464;-80
2021/08/26 06:24:53;;;;;;;3.60;2.43;;;15.10;99.90;;;15.91;100.00;97896.50;5056128;28;20448;-80
2021/08/26 06:27:21;;;;;;;3.07;2.43;;;15.00;99.90;;;15.90;100.00;97890.41;5057634;28;20467;-80
2021/08/26 06:29:50;;;;;;;3.83;2.77;;;15.20;99.90;;;15.93;100.00;97891.81;5053211;28;20487;-80
2021/08/26 06:32:18;;;;;;;26.23;5.40;;;15.20;99.90;;;15.97;100.00;97903.50;5053648;28;20449;-80
2021/08/26 06:34:47;;;;;;;11.27;3.73;;;15.20;99.90;;;16.00;100.00;97903.06;5057701;28;20586;-80
2021/08/26 06:37:17;;;;;;;3.80;2.27;;;15.20;99.90;;;16.02;100.00;97895.72;5058960;28;20448;-80
2021/08/26 06:39:45;;;;;;;3.93;2.37;;;15.20;99.90;;;16.04;100.00;97906.84;5058785;28;21068;-80
2021/08/26 06:42:14;;;;;;;3.63;2.63;;;15.20;99.90;;;16.07;100.00;97901.13;5058523;28;20457;-80
2021/08/26 06:44:42;;;;;;;3.23;2.20;;;15.20;99.90;;;16.09;100.00;97905.16;5061719;28;20452;-80
2021/08/26 06:47:11;;;;;;;7.83;1.80;;;15.30;99.90;;;16.09;100.00;97905.16;5054006;28;21007;-78
2021/08/26 06:49:40;;;;;;;3.07;2.30;;;15.30;99.90;;;16.12;100.00;97911.81;5062722;28;20470;-80
2021/08/26 06:52:08;;;;;;;3.50;2.40;;;15.20;99.90;;;16.17;100.00;97913.78;5059209;28;20453;-80
2021/08/26 06:54:39;;;;;;;7.57;2.20;;;15.30;99.90;;;16.16;100.00;97914.81;5063269;28;20444;-80
2021/08/26 06:57:07;;;;;;;2.17;1.80;;;15.30;99.90;;;16.12;100.00;97914.44;5053848;28;20546;-80
2021/08/26 06:59:39;;;;;;;1.73;1.63;;;15.30;99.90;;;16.15;100.00;97914.00;5064839;28;20440;-80
2021/08/26 07:02:07;;;;;;;2.50;2.00;;;15.30;99.90;;;16.18;100.00;97923.28;5059475;28;20441;-80
2021/08/26 07:04:36;;;;;;;1.97;1.80;;;15.30;99.90;;;16.18;100.00;97920.66;5059702;28;20441;-80
2021/08/26 07:07:08;;;;;;;1.90;1.60;;;15.40;99.90;;;16.23;100.00;97926.88;5058327;28;20963;-81
2021/08/26 07:09:38;;;;;;;13.53;1.80;;;15.40;99.90;;;16.29;100.00;97930.44;5059626;28;20969;-80
2021/08/26 07:12:07;;;;;;;3.40;1.73;;;15.40;99.90;;;16.30;100.00;97924.13;5060133;28;20444;-80
2021/08/26 07:14:36;;;;;;;2.20;1.80;;;15.40;99.90;;;16.28;100.00;97934.91;5059951;28;20806;-80
2021/08/26 07:17:05;;;;;;;2.63;1.87;;;15.50;99.90;;;16.20;100.00;97935.25;5059972;28;20491;-80
2021/08/26 07:19:34;;;;;;;3.40;2.10;;;15.40;99.90;;;16.16;100.00;97934.09;5059077;28;21024;-80
2021/08/26 07:22:02;;;;;;;2.67;1.70;;;15.40;99.90;;;16.17;100.00;97937.53;5058817;28;20464;-80
2021/08/26 07:24:31;;;;;;;3.17;2.10;;;15.30;99.90;;;16.18;100.00;97941.75;5052006;28;20510;-80
2021/08/26 07:27:01;;;;;;;4.13;2.30;;;15.30;99.90;;;16.13;100.00;97946.91;5063570;28;20533;-80
2021/08/26 07:29:29;;;;;;;2.67;2.17;;;15.30;99.90;;;16.15;100.00;97948.28;5058617;28;20456;-80
2021/08/26 07:31:58;;;;;;;4.33;2.10;;;15.30;99.90;;;16.19;100.00;97941.53;5053672;28;20797;-80
2021/08/26 07:34:26;;;;;;;2.10;1.70;;;15.30;99.90;;;16.23;100.00;97947.19;5059029;28;20456;-80
2021/08/26 07:36:55;;;;;;;1.77;1.60;;;15.40;99.90;;;16.25;100.00;97945.91;5059145;28;20570;-80
2021/08/26 07:39:23;;;;;;;6.60;1.70;;;15.40;99.90;;;16.24;100.00;97944.31;5061546;28;21420;-80
2021/08/26 07:41:52;;;;;;;1.97;1.60;;;15.40;99.90;;;16.23;100.00;97937.44;5055844;28;20445;-80
2021/08/26 07:44:22;;;;;;;2.63;1.80;;;15.40;99.90;;;16.25;100.00;97940.63;5059891;28;20453;-80
2021/08/26 07:46:50;;;;;;;6.27;2.03;;;15.40;99.90;;;16.30;100.00;97942.59;5054266;28;20491;-80
2021/08/26 07:49:19;;;;;;;3.70;2.00;;;15.50;99.90;;;16.32;100.00;97940.53;5060478;28;20488;-80
2021/08/26 07:51:47;;;;;;;3.60;2.00;;;15.50;99.90;;;16.36;100.00;97937.22;5057973;28;20961;-80
2021/08/26 07:54:15;;;;;;;3.30;2.47;;;15.70;99.90;;;16.38;100.00;97940.44;5062126;28;20484;-80
2021/08/26 07:56:44;;;;;;;5.00;2.17;;;15.70;99.90;;;16.37;100.00;97936.22;5057395;28;20492;-80
2021/08/26 07:59:12;;;;;;;3.63;2.20;;;15.60;99.90;;;16.40;100.00;97935.75;5063668;28;20800;-80
2021/08/26 08:01:42;;;;;;;4.13;2.20;;;15.60;99.90;;;16.46;100.00;97936.66;5060184;28;20926;-80
2021/08/26 08:04:11;;;;;;;3.80;1.90;;;15.70;99.90;;;16.43;100.00;97937.13;5058770;28;20449;-79
2021/08/26 08:06:39;;;;;;;6.37;2.50;;;15.60;99.90;;;16.51;100.00;97939.44;5052742;28;20570;-80
2021/08/26 08:09:08;;;;;;;4.50;1.97;;;15.70;99.90;;;16.53;100.00;97940.81;5062809;28;21029;-80
2021/08/26 08:11:36;;;;;;;10.80;2.80;;;15.80;99.90;;;16.57;100.00;97934.09;5058092;28;20469;-80
2021/08/26 08:14:05;;;;;;;3.47;2.33;;;15.80;99.90;;;16.58;100.00;97948.09;5056256;28;20957;-79
2021/08/26 08:16:33;;;;;;;7.07;2.23;;;15.90;99.90;;;16.58;100.00;97940.16;5055008;28;20927;-80
2021/08/26 08:19:04;;;;;;;5.50;2.83;;;15.90;99.90;;;16.55;100.00;97944.09;5062341;28;20507;-82
2021/08/26 08:21:33;;;;;;;4.30;2.03;;;16.00;99.90;;;16.62;100.00;97940.53;5056503;28;20457;-80
2021/08/26 08:24:01;;;;;;;4.93;2.40;;;16.00;99.90;;;16.60;100.00;97930.97;5058587;28;20937;-80
2021/08/26 08:26:30;;;;;;;2.83;2.00;;;15.90;99.90;;;16.62;100.00;97932.59;5059390;28;20530;-80
2021/08/26 08:28:59;;;;;;;3.30;2.27;;;16.00;99.90;;;16.72;100.00;97930.19;5060167;28;20449;-80
2021/08/26 08:31:28;;;;;;;5.53;2.23;;;16.10;99.90;;;16.80;100.00;97925.38;5059685;28;20525;-80
2021/08/26 08:33:56;;;;;;;3.23;2.33;;;16.10;99.90;;;16.87;100.00;97927.91;5058697;28;20472;-80
2021/08/26 08:36:26;;;;;;;4.63;2.60;;;16.20;99.90;;;16.90;100.00;97932.75;5060047;28;21000;-80
2021/08/26 08:38:55;;;;;;;5.37;2.40;;;16.20;99.90;;;16.93;100.00;97930.44;5057855;28;20480;-80
2021/08/26 08:41:23;;;;;;;7.43;3.10;;;16.20;99.90;;;16.92;100.00;97930.66;5060970;28;20956;-80
2021/08/26 08:43:52;;;;;;;4.23;2.37;;;16.20;99.90;;;16.98;100.00;97924.44;5051870;28;20453;-80
2021/08/26 08:46:21;;;;;;;6.17;4.43;;;16.30;99.90;;;17.04;100.00;97929.59;5058760;28;20442;-81
2021/08/26 08:48:51;;;;;;;5.40;2.77;;;16.30;99.90;;;17.12;100.00;97925.81;5051464;28;20510;-80
2021/08/26 08:51:21;;;;;;;11.50;2.57;;;16.40;99.90;;;17.17;100.00;97930.41;5060145;28;20472;-80
2021/08/26 08:53:51;;;;;;;6.07;2.30;;;16.40;99.90;;;17.08;100.00;97929.94;5056286;28;20461;-80
2021/08/26 08:56:22;;;;;;;3.13;2.40;;;16.50;99.90;;;17.13;100.00;97921.34;5054910;28;20484;-80
2021/08/26 08:58:50;;;;;;;4.13;2.47;;;16.40;99.90;;;17.13;100.00;97927.44;5058533;28;20449;-80
2021/08/26 09:01:19;;;;;;;3.57;1.93;;;16.40;99.90;;;17.14;100.00;97917.66;5059605;28;20968;-80
2021/08/26 09:03:47;;;;;;;6.73;2.67;;;16.50;99.90;;;17.19;100.00;97923.03;5053700;28;20463;-80
2021/08/26 09:06:16;;;;;;;3.77;2.20;;;16.50;99.90;;;17.18;100.00;97916.97;5058683;28;20446;-80
2021/08/26 09:09:04;;;;;;;5.90;3.00;;;16.50;99.90;;;17.19;100.00;97929.16;5058549;28;20468;-80
2021/08/26 09:11:34;;;;;;;7.70;3.07;;;16.50;99.90;;;17.18;100.00;97924.88;5054848;28;20953;-81
2021/08/26 09:14:10;;;;;;;8.50;2.97;;;16.50;99.90;;;17.22;100.00;97926.03;5061415;28;20506;-80
2021/08/26 09:16:42;;;;;;;11.60;2.97;;;16.50;99.90;;;17.15;98.27;97929.84;5060462;28;20906;-80
2021/08/26 09:19:24;;;;;;;7.60;3.07;;;16.40;99.90;;;17.16;99.65;97926.97;5053160;28;20441;-80
2021/08/26 09:21:54;;;;;;;5.53;3.10;;;16.50;99.90;;;17.18;100.00;97918.81;5055871;28;20487;-80
2021/08/26 09:24:24;;;;;;;6.13;2.47;;;16.60;99.90;;;17.22;99.97;97915.47;5056663;28;20449;-80
2021/08/26 09:26:53;;;;;;;3.70;2.53;;;16.50;99.90;;;17.23;100.00;97927.66;5060793;28;20512;-80
2021/08/26 09:29:21;;;;;;;5.70;2.40;;;16.50;99.90;;;17.27;97.90;97923.50;5055878;28;20496;-80
2021/08/26 09:31:51;;;;;;;4.70;2.90;;;16.50;99.90;;;17.28;98.54;97930.41;5061103;28;20789;-80
2021/08/26 09:34:20;;;;;;;5.97;2.67;;;16.60;99.90;;;17.33;99.97;97930.50;5056070;28;20445;-80
2021/08/26 09:36:57;;;;;;;5.23;2.70;;;16.60;99.90;;;17.39;98.87;97921.63;5061174;28;20999;-80
2021/08/26 09:39:29;;;;;;;5.00;2.80;;;16.70;99.90;;;17.34;99.10;97928.66;5051724;28;20479;-81
2021/08/26 09:42:03;;;;;;;5.33;2.63;;;16.70;99.90;;;17.37;98.74;97934.28;5059076;28;20457;-80
2021/08/26 09:44:34;;;;;;;6.13;3.20;;;16.70;99.90;;;17.38;99.30;97937.75;5060028;28;20448;-80
2021/08/26 09:47:06;;;;;;;7.17;2.80;;;16.70;99.90;;;17.42;100.00;97934.38;5049655;28;20529;-80
2021/08/26 09:49:39;;;;;;;4.70;2.83;;;16.70;99.90;;;17.49;100.00;97948.28;5062318;28;20460;-80
2021/08/26 09:52:11;;;;;;;6.23;3.30;;;16.70;99.90;;;17.53;100.00;97953.91;5056947;28;20445;-80
2021/08/26 09:54:44;;;;;;;5.80;3.37;;;16.80;99.90;;;17.48;100.00;97956.47;5053071;28;20448;-80
2021/08/26 09:57:24;;;;;;;7.80;3.20;;;16.70;99.90;;;17.48;100.00;97962.56;5050904;28;20528;-80
2021/08/26 09:59:55;;;;;;;5.27;2.80;;;16.70;99.90;;;17.44;100.00;97950.84;5059371;28;20479;-80
2021/08/26 10:02:25;;;;;;;6.40;3.30;;;16.70;99.90;;;17.43;100.00;97954.50;5057347;28;20453;-80
2021/08/26 10:04:55;;;;;;;5.03;2.93;;;16.70;99.90;;;17.46;100.00;97958.50;5056288;28;20449;-80
2021/08/26 10:07:27;;;;;;;6.93;3.40;;;16.70;99.90;;;17.45;97.88;97949.00;5060844;28;20440;-79
2021/08/26 10:09:58;;;;;;;6.90;3.00;;;16.80;99.90;;;17.42;99.11;97942.31;5056939;28;20477;-80
2021/08/26 10:12:26;;;;;;;7.83;3.37;;;16.70;99.90;;;17.46;99.33;97951.38;5058688;28;20449;-81
2021/08/26 10:14:55;;;;;;;6.30;3.13;;;16.90;99.90;;;17.40;99.03;97948.88;5053707;28;20843;-81
2021/08/26 10:17:23;;;;;;;7.90;3.17;;;16.80;99.90;;;17.42;99.85;97952.09;5056761;28;20515;-80
2021/08/26 10:19:52;;;;;;;5.80;3.57;;;16.60;99.90;;;17.45;100.00;97952.44;5055130;28;20989;-80
2021/08/26 10:22:20;;;;;;;8.63;3.23;;;16.80;99.90;;;17.34;95.87;97949.81;5059376;28;20944;-80